sensor_id;sensor_type;location;lat;lon;timestamp;pressure;altitude;pressure_sealevel;temperature;humidity
35224;BME280;21367;51.930;8.112;2024-01-30T00:00:17;102074.81;;;3.46;100.00
35224;BME280;21367;51.930;8.112;2024-01-30T00:05:24;102079.94;;;3.38;100.00
35224;BME280;21367;51.930;8.112;2024-01-30T00:10:28;102075.13;;;3.41;100.00
35224;BME280;21367;51.930;8.112;2024-01-30T00:15:32;102083.84;;;3.34;100.00
35224;BME280;21367;51.930;8.112;2024-01-30T00:20:38;102067.63;;;3.15;100.00
35224;BME280;21367;51.930;8.112;2024-01-30T00:25:42;102062.50;;;3.32;100.00
35224;BME280;21367;51.930;8.112;2024-01-30T00:30:45;102063.53;;;3.25;100.00
35224;BME280;21367;51.930;8.112;2024-01-30T00:35:52;102059.41;;;3.17;100.00
35224;BME280;21367;51.930;8.112;2024-01-30T00:40:55;102062.41;;;3.13;100.00
35224;BME280;21367;51.930;8.112;2024-01-30T00:45:59;102051.69;;;3.07;100.00
35224;BME280;21367;51.930;8.112;2024-01-30T00:51:06;102042.25;;;3.06;100.00
35224;BME280;21367;51.930;8.112;2024-01-30T00:56:10;102037.09;;;2.96;100.00
35224;BME280;21367;51.930;8.112;2024-01-30T01:01:14;102036.19;;;2.95;100.00
35224;BME280;21367;51.930;8.112;2024-01-30T01:06:21;102029.50;;;2.87;100.00
35224;BME280;21367;51.930;8.112;2024-01-30T01:11:25;102019.72;;;2.73;100.00
35224;BME280;21367;51.930;8.112;2024-01-30T01:16:28;102026.69;;;2.75;100.00
35224;BME280;21367;51.930;8.112;2024-01-30T01:21:35;102031.75;;;2.84;100.00
35224;BME280;21367;51.930;8.112;2024-01-30T01:26:38;102022.06;;;2.80;100.00
35224;BME280;21367;51.930;8.112;2024-01-30T01:31:42;102021.38;;;2.55;100.00
35224;BME280;21367;51.930;8.112;2024-01-30T01:36:50;102014.06;;;2.67;100.00
35224;BME280;21367;51.930;8.112;2024-01-30T01:41:55;102009.28;;;2.61;100.00
35224;BME280;21367;51.930;8.112;2024-01-30T01:47:00;101990.91;;;2.64;100.00
35224;BME280;21367;51.930;8.112;2024-01-30T01:52:07;101970.13;;;2.68;100.00
35224;BME280;21367;51.930;8.112;2024-01-30T01:57:11;101965.94;;;2.77;100.00
35224;BME280;21367;51.930;8.112;2024-01-30T02:02:17;101956.97;;;2.72;100.00
35224;BME280;21367;51.930;8.112;2024-01-30T02:07:25;101948.00;;;2.75;100.00
35224;BME280;21367;51.930;8.112;2024-01-30T02:12:30;101936.06;;;2.74;100.00
35224;BME280;21367;51.930;8.112;2024-01-30T02:17:34;101942.50;;;2.71;100.00
35224;BME280;21367;51.930;8.112;2024-01-30T02:22:41;101941.31;;;2.76;100.00
35224;BME280;21367;51.930;8.112;2024-01-30T02:27:46;101940.34;;;2.84;100.00
35224;BME280;21367;51.930;8.112;2024-01-30T02:32:50;101910.72;;;2.93;100.00
35224;BME280;21367;51.930;8.112;2024-01-30T02:37:56;101910.41;;;2.99;100.00
35224;BME280;21367;51.930;8.112;2024-01-30T02:43:01;101903.31;;;2.86;100.00
35224;BME280;21367;51.930;8.112;2024-01-30T02:48:06;101882.75;;;3.02;100.00
35224;BME280;21367;51.930;8.112;2024-01-30T02:53:13;101867.91;;;3.07;100.00
35224;BME280;21367;51.930;8.112;2024-01-30T02:58:16;101832.03;;;3.12;100.00
35224;BME280;21367;51.930;8.112;2024-01-30T03:03:20;101797.28;;;3.69;100.00
35224;BME280;21367;51.930;8.112;2024-01-30T03:08:26;101759.63;;;3.65;100.00
35224;BME280;21367;51.930;8.112;2024-01-30T03:13:30;101730.28;;;3.69;100.00
35224;BME280;21367;51.930;8.112;2024-01-30T03:18:33;101680.25;;;4.19;100.00
35224;BME280;21367;51.930;8.112;2024-01-30T03:23:41;101665.28;;;4.02;100.00
35224;BME280;21367;51.930;8.112;2024-01-30T03:28:45;101631.41;;;4.44;100.00
35224;BME280;21367;51.930;8.112;2024-01-30T03:33:48;101619.63;;;4.66;100.00
35224;BME280;21367;51.930;8.112;2024-01-30T03:38:55;101624.22;;;4.60;100.00
35224;BME280;21367;51.930;8.112;2024-01-30T03:43:58;101619.38;;;4.73;100.00
35224;BME280;21367;51.930;8.112;2024-01-30T03:49:02;101631.16;;;4.40;100.00
35224;BME280;21367;51.930;8.112;2024-01-30T03:54:08;101612.81;;;4.34;100.00
35224;BME280;21367;51.930;8.112;2024-01-30T03:59:12;101610.81;;;4.30;100.00
35224;BME280;21367;51.930;8.112;2024-01-30T04:04:16;101593.75;;;4.19;100.00
35224;BME280;21367;51.930;8.112;2024-01-30T04:09:22;101574.03;;;4.37;100.00
35224;BME280;21367;51.930;8.112;2024-01-30T04:14:27;101578.38;;;4.28;100.00
35224;BME280;21367;51.930;8.112;2024-01-30T04:19:31;101555.81;;;4.32;100.00
35224;BME280;21367;51.930;8.112;2024-01-30T04:24:38;101560.41;;;4.36;100.00
35224;BME280;21367;51.930;8.112;2024-01-30T04:29:41;101566.50;;;4.38;100.00
35224;BME280;21367;51.930;8.112;2024-01-30T04:34:45;101566.78;;;4.31;100.00
35224;BME280;21367;51.930;8.112;2024-01-30T04:39:51;101578.13;;;4.14;100.00
35224;BME280;21367;51.930;8.112;2024-01-30T04:44:55;101574.19;;;3.98;100.00
35224;BME280;21367;51.930;8.112;2024-01-30T04:49:58;101569.28;;;3.89;100.00
35224;BME280;21367;51.930;8.112;2024-01-30T04:55:06;101544.84;;;3.91;100.00
35224;BME280;21367;51.930;8.112;2024-01-30T05:00:11;101533.25;;;4.15;100.00
35224;BME280;21367;51.930;8.112;2024-01-30T05:05:15;101550.31;;;3.96;100.00
35224;BME280;21367;51.930;8.112;2024-01-30T05:10:22;101540.53;;;3.90;100.00
35224;BME280;21367;51.930;8.112;2024-01-30T05:15:26;101534.69;;;4.01;100.00
35224;BME280;21367;51.930;8.112;2024-01-30T05:20:30;101549.25;;;4.04;100.00
35224;BME280;21367;51.930;8.112;2024-01-30T05:25:36;101566.47;;;3.86;100.00
35224;BME280;21367;51.930;8.112;2024-01-30T05:30:40;101581.59;;;3.84;100.00
35224;BME280;21367;51.930;8.112;2024-01-30T05:35:43;101576.75;;;3.77;100.00
35224;BME280;21367;51.930;8.112;2024-01-30T05:40:49;101589.47;;;3.77;100.00
35224;BME280;21367;51.930;8.112;2024-01-30T05:45:53;101587.44;;;3.73;100.00
35224;BME280;21367;51.930;8.112;2024-01-30T05:50:58;101582.34;;;3.83;100.00
35224;BME280;21367;51.930;8.112;2024-01-30T05:56:05;101580.94;;;3.97;100.00
35224;BME280;21367;51.930;8.112;2024-01-30T06:01:08;101595.72;;;4.01;100.00
35224;BME280;21367;51.930;8.112;2024-01-30T06:06:12;101603.06;;;4.08;100.00
35224;BME280;21367;51.930;8.112;2024-01-30T06:11:19;101630.03;;;3.86;100.00
35224;BME280;21367;51.930;8.112;2024-01-30T06:16:24;101620.88;;;3.88;100.00
35224;BME280;21367;51.930;8.112;2024-01-30T06:21:32;101601.19;;;3.96;100.00
35224;BME280;21367;51.930;8.112;2024-01-30T06:26:40;101569.22;;;4.09;100.00
35224;BME280;21367;51.930;8.112;2024-01-30T06:31:43;101552.59;;;4.03;100.00
35224;BME280;21367;51.930;8.112;2024-01-30T06:36:49;101527.19;;;4.35;100.00
35224;BME280;21367;51.930;8.112;2024-01-30T06:41:55;101516.53;;;4.29;100.00
35224;BME280;21367;51.930;8.112;2024-01-30T06:46:59;101504.69;;;4.39;100.00
35224;BME280;21367;51.930;8.112;2024-01-30T06:52:04;101492.25;;;4.54;100.00
35224;BME280;21367;51.930;8.112;2024-01-30T06:57:10;101497.78;;;4.49;100.00
35224;BME280;21367;51.930;8.112;2024-01-30T07:02:15;101499.19;;;4.45;100.00
35224;BME280;21367;51.930;8.112;2024-01-30T07:07:18;101492.78;;;4.50;100.00
35224;BME280;21367;51.930;8.112;2024-01-30T07:12:25;101497.28;;;4.43;100.00
35224;BME280;21367;51.930;8.112;2024-01-30T07:17:28;101496.66;;;4.45;100.00
35224;BME280;21367;51.930;8.112;2024-01-30T07:22:33;101499.69;;;4.41;100.00
35224;BME280;21367;51.930;8.112;2024-01-30T07:27:39;101509.78;;;4.29;100.00
35224;BME280;21367;51.930;8.112;2024-01-30T07:32:43;101499.75;;;4.31;100.00
35224;BME280;21367;51.930;8.112;2024-01-30T07:37:47;101489.50;;;4.51;100.00
35224;BME280;21367;51.930;8.112;2024-01-30T07:42:53;101489.25;;;4.48;100.00
35224;BME280;21367;51.930;8.112;2024-01-30T07:47:57;101492.47;;;4.68;100.00
35224;BME280;21367;51.930;8.112;2024-01-30T07:53:02;101502.91;;;4.60;100.00
35224;BME280;21367;51.930;8.112;2024-01-30T07:58:08;101497.97;;;4.62;100.00
35224;BME280;21367;51.930;8.112;2024-01-30T08:03:14;101498.44;;;4.90;100.00
35224;BME280;21367;51.930;8.112;2024-01-30T08:08:18;101509.94;;;5.07;100.00
35224;BME280;21367;51.930;8.112;2024-01-30T08:13:25;101562.38;;;4.93;100.00
35224;BME280;21367;51.930;8.112;2024-01-30T08:18:31;101591.66;;;4.98;100.00
35224;BME280;21367;51.930;8.112;2024-01-30T08:23:38;101598.13;;;5.27;100.00
35224;BME280;21367;51.930;8.112;2024-01-30T08:28:44;101625.44;;;5.18;100.00
35224;BME280;21367;51.930;8.112;2024-01-30T08:33:49;101633.25;;;5.53;100.00
35224;BME280;21367;51.930;8.112;2024-01-30T08:38:53;101658.63;;;5.51;100.00
35224;BME280;21367;51.930;8.112;2024-01-30T08:44:00;101685.06;;;5.64;100.00
35224;BME280;21367;51.930;8.112;2024-01-30T08:49:05;101683.59;;;5.77;100.00
35224;BME280;21367;51.930;8.112;2024-01-30T08:54:08;101701.75;;;5.92;100.00
35224;BME280;21367;51.930;8.112;2024-01-30T08:59:15;101706.50;;;6.10;100.00
35224;BME280;21367;51.930;8.112;2024-01-30T09:04:18;101709.88;;;6.32;100.00
35224;BME280;21367;51.930;8.112;2024-01-30T09:09:22;101708.16;;;6.55;100.00
35224;BME280;21367;51.930;8.112;2024-01-30T09:14:28;101738.53;;;6.97;100.00
35224;BME280;21367;51.930;8.112;2024-01-30T09:19:34;101767.44;;;7.19;100.00
35224;BME280;21367;51.930;8.112;2024-01-30T09:24:37;101793.56;;;7.27;100.00
35224;BME280;21367;51.930;8.112;2024-01-30T09:29:46;101806.56;;;7.42;100.00
35224;BME280;21367;51.930;8.112;2024-01-30T09:34:50;101835.81;;;7.57;100.00
35224;BME280;21367;51.930;8.112;2024-01-30T09:39:54;101846.13;;;7.71;100.00
35224;BME280;21367;51.930;8.112;2024-01-30T09:45:01;101860.25;;;7.89;100.00
35224;BME280;21367;51.930;8.112;2024-01-30T09:50:06;101891.81;;;8.25;100.00
35224;BME280;21367;51.930;8.112;2024-01-30T09:55:10;101927.59;;;8.60;100.00
35224;BME280;21367;51.930;8.112;2024-01-30T10:00:17;101945.06;;;8.77;100.00
35224;BME280;21367;51.930;8.112;2024-01-30T10:05:26;101970.97;;;9.19;100.00
35224;BME280;21367;51.930;8.112;2024-01-30T10:10:30;101984.25;;;9.13;100.00
35224;BME280;21367;51.930;8.112;2024-01-30T10:15:37;101984.75;;;9.21;100.00
35224;BME280;21367;51.930;8.112;2024-01-30T10:20:42;101992.75;;;9.50;100.00
35224;BME280;21367;51.930;8.112;2024-01-30T10:25:46;101999.72;;;10.18;100.00
35224;BME280;21367;51.930;8.112;2024-01-30T10:30:59;102002.09;;;9.88;100.00
35224;BME280;21367;51.930;8.112;2024-01-30T10:36:05;101995.59;;;9.93;100.00
35224;BME280;21367;51.930;8.112;2024-01-30T10:41:11;101998.66;;;9.88;100.00
35224;BME280;21367;51.930;8.112;2024-01-30T10:46:19;101988.38;;;10.14;100.00
35224;BME280;21367;51.930;8.112;2024-01-30T10:51:24;101990.56;;;10.22;100.00
35224;BME280;21367;51.930;8.112;2024-01-30T10:56:29;101991.06;;;10.16;100.00
35224;BME280;21367;51.930;8.112;2024-01-30T11:01:37;101998.28;;;10.48;100.00
35224;BME280;21367;51.930;8.112;2024-01-30T11:06:41;102001.41;;;10.17;100.00
35224;BME280;21367;51.930;8.112;2024-01-30T11:11:49;102004.31;;;10.22;100.00
35224;BME280;21367;51.930;8.112;2024-01-30T11:16:57;102007.94;;;10.26;100.00
35224;BME280;21367;51.930;8.112;2024-01-30T11:22:01;101999.16;;;10.49;100.00
35224;BME280;21367;51.930;8.112;2024-01-30T11:27:08;101996.97;;;10.55;100.00
35224;BME280;21367;51.930;8.112;2024-01-30T11:32:22;101996.66;;;10.63;100.00
35224;BME280;21367;51.930;8.112;2024-01-30T11:37:26;101996.44;;;10.74;100.00
35224;BME280;21367;51.930;8.112;2024-01-30T11:42:30;101994.94;;;10.77;100.00
35224;BME280;21367;51.930;8.112;2024-01-30T11:47:38;101993.38;;;11.07;100.00
35224;BME280;21367;51.930;8.112;2024-01-30T11:52:42;101994.81;;;11.17;100.00
35224;BME280;21367;51.930;8.112;2024-01-30T11:57:46;102000.78;;;11.31;100.00
35224;BME280;21367;51.930;8.112;2024-01-30T12:02:54;101999.44;;;11.23;100.00
35224;BME280;21367;51.930;8.112;2024-01-30T12:08:01;102004.19;;;11.45;100.00
35224;BME280;21367;51.930;8.112;2024-01-30T12:13:04;102008.56;;;11.61;100.00
35224;BME280;21367;51.930;8.112;2024-01-30T12:18:11;102001.38;;;11.70;100.00
35224;BME280;21367;51.930;8.112;2024-01-30T12:23:15;102005.19;;;11.76;100.00
35224;BME280;21367;51.930;8.112;2024-01-30T12:28:21;102009.44;;;11.76;100.00
35224;BME280;21367;51.930;8.112;2024-01-30T12:33:29;102012.00;;;11.61;100.00
35224;BME280;21367;51.930;8.112;2024-01-30T12:38:33;102013.69;;;11.61;100.00
35224;BME280;21367;51.930;8.112;2024-01-30T12:43:37;102027.19;;;11.71;100.00
35224;BME280;21367;51.930;8.112;2024-01-30T12:48:43;102008.31;;;11.86;100.00
35224;BME280;21367;51.930;8.112;2024-01-30T12:53:49;102004.19;;;11.74;100.00
35224;BME280;21367;51.930;8.112;2024-01-30T12:58:53;102012.81;;;11.60;100.00
35224;BME280;21367;51.930;8.112;2024-01-30T13:03:59;102012.25;;;11.66;100.00
35224;BME280;21367;51.930;8.112;2024-01-30T13:09:06;102007.41;;;11.70;100.00
35224;BME280;21367;51.930;8.112;2024-01-30T13:14:10;101997.81;;;11.68;100.00
35224;BME280;21367;51.930;8.112;2024-01-30T13:19:17;102012.91;;;11.76;100.00
35224;BME280;21367;51.930;8.112;2024-01-30T13:24:24;102013.25;;;11.82;100.00
35224;BME280;21367;51.930;8.112;2024-01-30T13:35:29;101989.97;;;11.81;100.00
35224;BME280;21367;51.930;8.112;2024-01-30T13:40:48;101992.03;;;11.72;100.00
35224;BME280;21367;51.930;8.112;2024-01-30T13:46:31;101996.47;;;11.60;100.00
35224;BME280;21367;51.930;8.112;2024-01-30T13:58:44;102011.31;;;11.64;100.00
35224;BME280;21367;51.930;8.112;2024-01-30T14:04:30;102015.09;;;11.55;100.00
35224;BME280;21367;51.930;8.112;2024-01-30T14:10:10;102025.50;;;11.57;100.00
35224;BME280;21367;51.930;8.112;2024-01-30T14:15:17;102014.13;;;11.39;100.00
35224;BME280;21367;51.930;8.112;2024-01-30T14:20:22;102011.25;;;11.34;100.00
35224;BME280;21367;51.930;8.112;2024-01-30T14:25:26;102018.53;;;11.26;100.00
35224;BME280;21367;51.930;8.112;2024-01-30T14:30:35;102019.72;;;11.18;100.00
35224;BME280;21367;51.930;8.112;2024-01-30T14:35:39;102017.50;;;11.38;100.00
35224;BME280;21367;51.930;8.112;2024-01-30T14:40:43;102018.97;;;11.19;100.00
35224;BME280;21367;51.930;8.112;2024-01-30T14:45:49;102009.03;;;11.25;100.00
35224;BME280;21367;51.930;8.112;2024-01-30T14:50:53;102035.34;;;11.21;100.00
35224;BME280;21367;51.930;8.112;2024-01-30T14:55:57;102021.38;;;11.03;100.00
35224;BME280;21367;51.930;8.112;2024-01-30T15:01:03;102036.81;;;11.03;100.00
35224;BME280;21367;51.930;8.112;2024-01-30T15:06:08;102033.34;;;11.02;100.00
35224;BME280;21367;51.930;8.112;2024-01-30T15:11:11;102035.47;;;10.95;100.00
35224;BME280;21367;51.930;8.112;2024-01-30T15:16:18;102043.25;;;10.96;100.00
35224;BME280;21367;51.930;8.112;2024-01-30T15:21:22;102038.78;;;11.07;100.00
35224;BME280;21367;51.930;8.112;2024-01-30T15:26:26;102043.19;;;10.95;100.00
35224;BME280;21367;51.930;8.112;2024-01-30T15:31:32;102046.19;;;11.16;100.00
35224;BME280;21367;51.930;8.112;2024-01-30T15:36:36;102043.63;;;11.02;100.00
35224;BME280;21367;51.930;8.112;2024-01-30T15:41:40;102041.41;;;10.94;100.00
35224;BME280;21367;51.930;8.112;2024-01-30T15:46:46;102050.91;;;10.95;100.00
35224;BME280;21367;51.930;8.112;2024-01-30T15:51:50;102056.78;;;10.79;100.00
35224;BME280;21367;51.930;8.112;2024-01-30T15:56:54;102054.28;;;10.80;100.00
35224;BME280;21367;51.930;8.112;2024-01-30T16:02:00;102058.84;;;10.84;100.00
35224;BME280;21367;51.930;8.112;2024-01-30T16:07:04;102060.91;;;10.77;100.00
35224;BME280;21367;51.930;8.112;2024-01-30T16:12:07;102071.72;;;10.58;100.00
35224;BME280;21367;51.930;8.112;2024-01-30T16:17:14;102074.28;;;10.58;100.00
35224;BME280;21367;51.930;8.112;2024-01-30T16:22:18;102089.59;;;10.43;100.00
35224;BME280;21367;51.930;8.112;2024-01-30T16:27:22;102091.69;;;10.49;100.00
35224;BME280;21367;51.930;8.112;2024-01-30T16:32:29;102106.50;;;10.39;100.00
35224;BME280;21367;51.930;8.112;2024-01-30T16:37:34;102121.66;;;10.48;100.00
35224;BME280;21367;51.930;8.112;2024-01-30T16:42:38;102139.03;;;10.39;100.00
35224;BME280;21367;51.930;8.112;2024-01-30T16:47:44;102163.13;;;10.03;100.00
35224;BME280;21367;51.930;8.112;2024-01-30T16:52:48;102173.47;;;9.91;100.00
35224;BME280;21367;51.930;8.112;2024-01-30T16:57:52;102184.16;;;9.72;100.00
35224;BME280;21367;51.930;8.112;2024-01-30T17:02:58;102196.03;;;9.58;100.00
35224;BME280;21367;51.930;8.112;2024-01-30T17:08:03;102210.69;;;9.36;100.00
35224;BME280;21367;51.930;8.112;2024-01-30T17:13:07;102222.56;;;9.10;100.00
35224;BME280;21367;51.930;8.112;2024-01-30T17:18:13;102232.47;;;9.17;100.00
35224;BME280;21367;51.930;8.112;2024-01-30T17:23:18;102240.19;;;8.94;100.00
35224;BME280;21367;51.930;8.112;2024-01-30T17:28:22;102250.75;;;8.87;100.00
35224;BME280;21367;51.930;8.112;2024-01-30T17:33:29;102252.66;;;8.77;100.00
35224;BME280;21367;51.930;8.112;2024-01-30T17:38:33;102256.03;;;8.54;100.00
35224;BME280;21367;51.930;8.112;2024-01-30T17:43:37;102257.56;;;8.74;100.00
35224;BME280;21367;51.930;8.112;2024-01-30T17:48:43;102256.25;;;8.46;100.00
35224;BME280;21367;51.930;8.112;2024-01-30T17:53:50;102255.72;;;8.62;100.00
35224;BME280;21367;51.930;8.112;2024-01-30T17:58:54;102264.31;;;8.62;100.00
35224;BME280;21367;51.930;8.112;2024-01-30T18:04:00;102268.56;;;8.73;100.00
35224;BME280;21367;51.930;8.112;2024-01-30T18:09:05;102281.56;;;8.65;100.00
35224;BME280;21367;51.930;8.112;2024-01-30T18:14:10;102285.28;;;8.68;100.00
35224;BME280;21367;51.930;8.112;2024-01-30T18:19:17;102286.47;;;8.62;100.00
35224;BME280;21367;51.930;8.112;2024-01-30T18:24:25;102291.19;;;8.79;100.00
35224;BME280;21367;51.930;8.112;2024-01-30T18:29:43;102290.47;;;8.58;100.00
35224;BME280;21367;51.930;8.112;2024-01-30T18:34:50;102303.47;;;8.71;100.00
35224;BME280;21367;51.930;8.112;2024-01-30T18:39:54;102301.94;;;8.97;100.00
35224;BME280;21367;51.930;8.112;2024-01-30T18:44:57;102307.91;;;8.74;100.00
35224;BME280;21367;51.930;8.112;2024-01-30T18:50:05;102317.63;;;8.78;100.00
35224;BME280;21367;51.930;8.112;2024-01-30T18:55:09;102321.53;;;8.51;100.00
35224;BME280;21367;51.930;8.112;2024-01-30T19:00:14;102319.22;;;8.32;100.00
35224;BME280;21367;51.930;8.112;2024-01-30T19:05:21;102311.31;;;8.07;100.00
35224;BME280;21367;51.930;8.112;2024-01-30T19:10:25;102298.66;;;7.98;100.00
35224;BME280;21367;51.930;8.112;2024-01-30T19:15:29;102301.69;;;8.04;100.00
35224;BME280;21367;51.930;8.112;2024-01-30T19:20:36;102302.66;;;8.17;100.00
35224;BME280;21367;51.930;8.112;2024-01-30T19:25:40;102295.59;;;7.80;100.00
35224;BME280;21367;51.930;8.112;2024-01-30T19:30:44;102301.22;;;7.98;100.00
35224;BME280;21367;51.930;8.112;2024-01-30T19:35:51;102296.44;;;7.59;100.00
35224;BME280;21367;51.930;8.112;2024-01-30T19:40:55;102290.31;;;7.79;100.00
35224;BME280;21367;51.930;8.112;2024-01-30T19:45:59;102302.31;;;7.90;100.00
35224;BME280;21367;51.930;8.112;2024-01-30T19:51:06;102307.31;;;7.56;100.00
35224;BME280;21367;51.930;8.112;2024-01-30T19:56:10;102316.66;;;7.56;100.00
35224;BME280;21367;51.930;8.112;2024-01-30T20:01:15;102325.75;;;7.84;100.00
35224;BME280;21367;51.930;8.112;2024-01-30T20:06:22;102322.50;;;7.65;100.00
35224;BME280;21367;51.930;8.112;2024-01-30T20:11:26;102313.22;;;7.55;100.00
35224;BME280;21367;51.930;8.112;2024-01-30T20:16:35;102322.75;;;7.68;100.00
35224;BME280;21367;51.930;8.112;2024-01-30T20:21:42;102327.88;;;7.58;100.00
35224;BME280;21367;51.930;8.112;2024-01-30T20:26:47;102328.56;;;7.55;100.00
35224;BME280;21367;51.930;8.112;2024-01-30T20:31:51;102320.16;;;7.46;100.00
35224;BME280;21367;51.930;8.112;2024-01-30T20:36:57;102330.75;;;7.51;100.00
35224;BME280;21367;51.930;8.112;2024-01-30T20:42:02;102353.22;;;7.65;100.00
35224;BME280;21367;51.930;8.112;2024-01-30T20:47:06;102348.03;;;7.43;100.00
35224;BME280;21367;51.930;8.112;2024-01-30T20:52:14;102360.44;;;7.38;100.00
35224;BME280;21367;51.930;8.112;2024-01-30T20:57:18;102356.47;;;7.52;100.00
35224;BME280;21367;51.930;8.112;2024-01-30T21:02:22;102364.03;;;7.40;100.00
35224;BME280;21367;51.930;8.112;2024-01-30T21:07:28;102371.44;;;7.37;100.00
35224;BME280;21367;51.930;8.112;2024-01-30T21:12:32;102369.16;;;7.30;100.00
35224;BME280;21367;51.930;8.112;2024-01-30T21:17:35;102349.28;;;7.48;100.00
35224;BME280;21367;51.930;8.112;2024-01-30T21:22:42;102323.78;;;7.28;100.00
35224;BME280;21367;51.930;8.112;2024-01-30T21:27:45;102279.97;;;7.03;100.00
35224;BME280;21367;51.930;8.112;2024-01-30T21:32:49;102246.53;;;6.89;100.00
35224;BME280;21367;51.930;8.112;2024-01-30T21:37:57;102212.53;;;6.90;100.00
35224;BME280;21367;51.930;8.112;2024-01-30T21:43:01;102185.91;;;6.99;100.00
35224;BME280;21367;51.930;8.112;2024-01-30T21:48:06;102167.56;;;6.82;100.00
35224;BME280;21367;51.930;8.112;2024-01-30T21:53:12;102165.84;;;7.03;100.00
35224;BME280;21367;51.930;8.112;2024-01-30T21:58:19;102164.41;;;7.07;100.00
35224;BME280;21367;51.930;8.112;2024-01-30T22:03:23;102172.72;;;7.04;100.00
35224;BME280;21367;51.930;8.112;2024-01-30T22:08:29;102164.56;;;7.08;100.00
35224;BME280;21367;51.930;8.112;2024-01-30T22:13:33;102129.59;;;7.19;100.00
35224;BME280;21367;51.930;8.112;2024-01-30T22:18:37;102118.16;;;7.04;100.00
35224;BME280;21367;51.930;8.112;2024-01-30T22:23:44;102100.78;;;6.78;100.00
35224;BME280;21367;51.930;8.112;2024-01-30T22:28:47;102099.06;;;6.56;100.00
35224;BME280;21367;51.930;8.112;2024-01-30T22:33:51;102082.09;;;6.79;100.00
35224;BME280;21367;51.930;8.112;2024-01-30T22:39:02;102107.00;;;6.81;100.00
35224;BME280;21367;51.930;8.112;2024-01-30T22:44:09;102112.84;;;6.90;100.00
35224;BME280;21367;51.930;8.112;2024-01-30T22:49:13;102128.03;;;6.99;100.00
35224;BME280;21367;51.930;8.112;2024-01-30T22:54:19;102148.97;;;7.05;100.00
35224;BME280;21367;51.930;8.112;2024-01-30T22:59:22;102167.22;;;6.78;100.00
35224;BME280;21367;51.930;8.112;2024-01-30T23:04:26;102190.13;;;7.08;100.00
35224;BME280;21367;51.930;8.112;2024-01-30T23:09:33;102210.13;;;6.71;100.00
35224;BME280;21367;51.930;8.112;2024-01-30T23:14:37;102209.34;;;6.83;100.00
35224;BME280;21367;51.930;8.112;2024-01-30T23:19:42;102220.19;;;6.90;100.00
35224;BME280;21367;51.930;8.112;2024-01-30T23:24:49;102236.31;;;6.89;100.00
35224;BME280;21367;51.930;8.112;2024-01-30T23:29:52;102269.38;;;6.88;100.00
35224;BME280;21367;51.930;8.112;2024-01-30T23:34:56;102299.28;;;6.89;100.00
35224;BME280;21367;51.930;8.112;2024-01-30T23:40:03;102313.72;;;6.78;100.00
35224;BME280;21367;51.930;8.112;2024-01-30T23:45:08;102323.72;;;6.65;100.00
35224;BME280;21367;51.930;8.112;2024-01-30T23:50:12;102342.47;;;6.86;100.00
35224;BME280;21367;51.930;8.112;2024-01-30T23:55:19;102372.34;;;6.77;100.00
